Topaz Ranch Estates, Nevada
Current Conditions -  °F | °C
As of 11:55 AM on Friday 24 Oct 2014 (Local Time) from KMEV Reporting Station
Clear Clear  
Wind Chill: 75°   Ceiling: Unl
Heat Index: 75°   Visibility: 10mi
Dew Point: 21°   Wind: 23mph
Humidity: 13%   Direction: 190°S
Pressure: 30.05"   Gusts: 33mph
Location:  38.7596°N, 119.34°W
Report Text: KMEV 241855Z AUTO 19020G29KT 10SM CLR 24/M06 A3005 RMK AO2
Loading
Personal Weather Stations






























Interactive Weather Map
Tropical Storm Tracking
New forecast layout! Learn more

10-Day Weather Forecast

Advertisements
Track Severe Weather on mobile